createdAt,value
2019-05-20T00:00:53.157Z,9.90
2019-05-20T00:03:21.378Z,9.90
2019-05-20T00:05:49.647Z,9.90
2019-05-20T00:08:17.869Z,9.80
2019-05-20T00:10:46.078Z,9.80
2019-05-20T00:13:14.307Z,9.70
2019-05-20T00:15:42.580Z,9.80
2019-05-20T00:18:10.792Z,10.00
2019-05-20T00:20:39.020Z,10.20
2019-05-20T00:23:07.236Z,10.40
2019-05-20T00:25:35.460Z,10.40
2019-05-20T00:28:03.677Z,10.60
2019-05-20T00:30:31.899Z,10.70
2019-05-20T00:33:00.103Z,10.80
2019-05-20T00:35:28.321Z,10.80
2019-05-20T00:37:56.556Z,10.70
2019-05-20T00:40:24.756Z,10.70
2019-05-20T00:42:52.985Z,10.70
2019-05-20T00:45:21.193Z,10.70
2019-05-20T00:47:49.411Z,10.60
2019-05-20T00:50:17.644Z,10.50
2019-05-20T00:52:45.864Z,10.50
2019-05-20T00:55:25.685Z,10.60
2019-05-20T00:57:53.899Z,10.60
2019-05-20T01:00:22.200Z,10.50
2019-05-20T01:02:57.080Z,10.40
2019-05-20T01:05:20.352Z,10.60
2019-05-20T01:07:48.572Z,10.70
2019-05-20T01:10:16.788Z,10.80
2019-05-20T01:12:45.028Z,10.90
2019-05-20T01:15:13.796Z,10.90
2019-05-20T01:17:42.003Z,10.90
2019-05-20T01:20:10.892Z,11.00
2019-05-20T01:22:39.099Z,10.90
2019-05-20T01:25:07.325Z,11.00
2019-05-20T01:27:35.535Z,10.90
2019-05-20T01:30:04.811Z,10.90
2019-05-20T01:32:33.026Z,10.90
2019-05-20T01:35:01.251Z,10.90
2019-05-20T01:37:29.456Z,10.90
2019-05-20T01:39:57.679Z,10.90
2019-05-20T01:42:25.875Z,10.80
2019-05-20T01:44:54.087Z,10.80
2019-05-20T01:47:22.309Z,10.70
2019-05-20T01:49:50.504Z,10.60
2019-05-20T01:52:18.728Z,10.60
2019-05-20T01:54:47.011Z,10.50
2019-05-20T01:57:15.233Z,10.50
2019-05-20T01:59:43.440Z,10.40
2019-05-20T02:02:11.665Z,10.30
2019-05-20T02:04:41.658Z,10.30
2019-05-20T02:07:09.923Z,10.30
2019-05-20T02:09:38.135Z,10.40
2019-05-20T02:12:06.345Z,10.30
2019-05-20T02:14:44.973Z,10.30
2019-05-20T02:17:13.189Z,10.40
2019-05-20T02:19:41.396Z,10.50
2019-05-20T02:22:09.686Z,10.60
2019-05-20T02:24:37.895Z,10.60
2019-05-20T02:27:06.132Z,10.70
2019-05-20T02:29:34.417Z,10.70
2019-05-20T02:32:02.618Z,10.80
2019-05-20T02:34:30.840Z,10.70
2019-05-20T02:36:59.053Z,10.80
2019-05-20T02:39:27.265Z,10.80
2019-05-20T02:41:55.481Z,10.80
2019-05-20T02:44:23.688Z,10.90
2019-05-20T02:46:51.898Z,10.90
2019-05-20T02:49:20.108Z,11.00
2019-05-20T02:51:48.312Z,11.00
2019-05-20T02:54:16.524Z,11.10
2019-05-20T02:56:44.749Z,11.10
2019-05-20T02:59:12.955Z,11.10
2019-05-20T03:01:41.196Z,11.10
2019-05-20T03:04:12.326Z,11.10
2019-05-20T03:06:39.345Z,11.20
2019-05-20T03:09:11.392Z,11.30
2019-05-20T03:11:37.513Z,11.30
2019-05-20T03:14:05.727Z,11.30
2019-05-20T03:16:33.937Z,11.30
2019-05-20T03:19:02.164Z,11.30
2019-05-20T03:21:30.387Z,11.30
2019-05-20T03:23:58.598Z,11.20
2019-05-20T03:26:26.816Z,11.20
2019-05-20T03:28:55.039Z,11.20
2019-05-20T03:31:23.266Z,11.20
2019-05-20T03:33:51.503Z,11.20
2019-05-20T03:36:19.774Z,11.20
2019-05-20T03:38:47.968Z,11.20
2019-05-20T03:41:16.186Z,11.20
2019-05-20T03:43:44.389Z,11.20
2019-05-20T03:46:12.605Z,11.20
2019-05-20T03:48:40.825Z,11.20
2019-05-20T03:51:09.032Z,11.20
2019-05-20T03:53:37.236Z,11.20
2019-05-20T03:56:05.458Z,11.20
2019-05-20T03:58:33.668Z,11.10
2019-05-20T04:01:01.894Z,11.10
2019-05-20T04:03:30.096Z,11.10
2019-05-20T04:05:58.317Z,11.10
2019-05-20T04:08:26.521Z,11.10
2019-05-20T04:10:54.741Z,11.10
2019-05-20T04:13:22.961Z,11.10
2019-05-20T04:15:51.196Z,11.20
2019-05-20T04:18:19.408Z,11.10
2019-05-20T04:20:47.621Z,11.20
2019-05-20T04:23:15.863Z,11.20
2019-05-20T04:25:44.061Z,11.20
2019-05-20T04:28:12.268Z,11.30
2019-05-20T04:30:41.053Z,11.30
2019-05-20T04:33:09.262Z,11.40
2019-05-20T04:35:37.463Z,11.40
2019-05-20T04:38:05.694Z,11.50
2019-05-20T04:40:33.900Z,11.50
2019-05-20T04:43:02.453Z,11.50
2019-05-20T04:45:30.653Z,11.50
2019-05-20T04:47:58.874Z,11.50
2019-05-20T04:50:27.071Z,11.60
2019-05-20T04:52:55.303Z,11.60
2019-05-20T04:55:23.515Z,11.60
2019-05-20T04:57:51.745Z,11.70
2019-05-20T05:00:44.029Z,11.70
2019-05-20T05:03:12.250Z,11.80
2019-05-20T05:05:40.456Z,11.90
2019-05-20T05:08:08.685Z,11.90
2019-05-20T05:10:36.880Z,12.00
2019-05-20T05:13:05.163Z,12.10
2019-05-20T05:15:33.386Z,12.10
2019-05-20T05:18:01.593Z,12.20
2019-05-20T05:20:29.807Z,12.40
2019-05-20T05:22:58.016Z,12.50
2019-05-20T05:25:26.233Z,12.60
2019-05-20T05:27:54.451Z,12.70
2019-05-20T05:30:22.667Z,12.80
2019-05-20T05:32:50.864Z,12.80
2019-05-20T05:35:19.159Z,12.90
2019-05-20T05:37:47.756Z,13.10
2019-05-20T05:40:17.410Z,13.10
2019-05-20T05:42:45.738Z,13.20
2019-05-20T05:45:13.962Z,13.30
2019-05-20T05:47:42.172Z,13.30
2019-05-20T05:50:10.381Z,13.30
2019-05-20T05:52:39.537Z,13.30
2019-05-20T05:55:07.755Z,13.30
2019-05-20T05:57:35.965Z,13.30
2019-05-20T06:00:09.404Z,13.30
2019-05-20T06:02:37.615Z,13.40
2019-05-20T06:05:06.005Z,13.40
2019-05-20T06:07:34.219Z,13.50
2019-05-20T06:10:02.451Z,13.60
2019-05-20T06:12:30.659Z,13.70
2019-05-20T06:14:58.968Z,13.80
2019-05-20T06:17:27.190Z,13.90
2019-05-20T06:19:55.402Z,14.00
2019-05-20T06:22:23.611Z,14.20
2019-05-20T06:24:51.863Z,14.30
2019-05-20T06:27:20.083Z,14.30
2019-05-20T06:29:48.289Z,14.30
2019-05-20T06:32:16.525Z,14.20
2019-05-20T06:34:44.729Z,14.10
2019-05-20T06:37:17.491Z,14.10
2019-05-20T06:39:45.700Z,14.10
2019-05-20T06:42:13.922Z,14.10
2019-05-20T06:44:52.090Z,14.20
2019-05-20T06:47:12.077Z,14.30
2019-05-20T06:49:40.290Z,14.40
2019-05-20T06:52:08.497Z,14.50
2019-05-20T06:54:36.725Z,14.50
2019-05-20T06:57:04.934Z,14.60
2019-05-20T06:59:33.157Z,14.70
2019-05-20T07:02:01.525Z,14.60
2019-05-20T07:04:29.880Z,14.60
2019-05-20T07:06:58.089Z,14.70
2019-05-20T07:09:26.319Z,14.80
2019-05-20T07:11:54.593Z,14.90
2019-05-20T07:14:22.802Z,14.90
2019-05-20T07:16:51.021Z,15.10
2019-05-20T07:19:19.229Z,15.30
2019-05-20T07:21:47.457Z,15.40
2019-05-20T07:24:15.665Z,15.60
2019-05-20T07:26:43.882Z,15.80
2019-05-20T07:29:12.088Z,15.80
2019-05-20T07:31:40.305Z,15.90
2019-05-20T07:34:08.512Z,16.00
2019-05-20T07:36:36.734Z,16.10
2019-05-20T07:39:06.640Z,16.50
2019-05-20T07:41:34.903Z,16.80
2019-05-20T07:44:03.621Z,17.50
2019-05-20T07:46:32.198Z,18.30
2019-05-20T07:49:00.461Z,18.90
2019-05-20T07:51:28.801Z,19.90
2019-05-20T07:53:57.038Z,20.50
2019-05-20T07:56:30.563Z,20.70
2019-05-20T07:59:03.804Z,21.50
2019-05-20T08:04:00.009Z,22.30
2019-05-20T08:06:29.905Z,22.80
2019-05-20T08:08:58.172Z,22.60
2019-05-20T08:11:26.373Z,22.10
2019-05-20T08:13:54.617Z,22.00
2019-05-20T08:16:22.856Z,22.80
2019-05-20T08:18:51.062Z,23.30
2019-05-20T08:21:19.273Z,23.70
2019-05-20T08:23:50.145Z,23.80
2019-05-20T08:26:17.468Z,23.60
2019-05-20T08:28:45.715Z,24.20
2019-05-20T08:31:13.988Z,24.00
2019-05-20T08:33:43.815Z,24.30
2019-05-20T08:36:15.332Z,24.00
2019-05-20T08:38:43.554Z,23.90
2019-05-20T08:41:11.834Z,24.10
2019-05-20T08:43:40.036Z,24.90
2019-05-20T08:46:08.255Z,25.40
2019-05-20T08:48:36.470Z,25.80
2019-05-20T08:51:04.681Z,25.70
2019-05-20T08:53:32.891Z,26.10
2019-05-20T08:56:01.142Z,26.40
2019-05-20T08:58:29.397Z,26.60
2019-05-20T09:00:57.606Z,26.80
2019-05-20T09:03:29.975Z,26.60
2019-05-20T09:05:55.732Z,25.90
2019-05-20T09:08:23.948Z,25.60
2019-05-20T09:10:52.148Z,25.50
2019-05-20T09:13:20.360Z,25.30
2019-05-20T09:15:48.595Z,25.40
2019-05-20T09:18:16.800Z,25.90
2019-05-20T09:20:45.145Z,25.20
2019-05-20T09:23:13.360Z,24.70
2019-05-20T09:25:41.574Z,25.00
2019-05-20T09:28:09.780Z,25.30
2019-05-20T09:30:37.985Z,25.20
2019-05-20T09:33:06.196Z,25.70
2019-05-20T09:35:34.400Z,25.60
2019-05-20T09:38:17.178Z,26.50
2019-05-20T09:40:37.559Z,26.40
2019-05-20T09:43:06.309Z,26.50
2019-05-20T09:45:34.792Z,25.70
2019-05-20T09:48:03.068Z,26.20
2019-05-20T09:50:31.283Z,26.60
2019-05-20T09:52:59.528Z,26.60
2019-05-20T09:55:29.528Z,25.70
2019-05-20T09:57:57.916Z,24.40
2019-05-20T10:00:26.131Z,24.10
2019-05-20T10:02:54.348Z,24.30
2019-05-20T10:05:22.570Z,24.60
2019-05-20T10:07:50.795Z,24.30
2019-05-20T10:10:19.009Z,24.20
2019-05-20T10:12:47.307Z,24.20
2019-05-20T10:15:15.496Z,24.20
2019-05-20T10:17:43.722Z,24.50
2019-05-20T10:20:11.928Z,24.60
2019-05-20T10:22:40.144Z,25.00
2019-05-20T10:25:08.887Z,25.50
2019-05-20T10:27:37.104Z,25.60
2019-05-20T10:30:08.316Z,25.40
2019-05-20T10:32:36.524Z,25.20
2019-05-20T10:35:05.706Z,25.30
2019-05-20T10:37:33.916Z,25.90
2019-05-20T10:40:02.125Z,26.70
2019-05-20T10:42:30.344Z,26.50
2019-05-20T10:44:58.554Z,25.60
2019-05-20T10:47:26.824Z,24.90
2019-05-20T10:49:55.040Z,25.00
2019-05-20T10:52:23.244Z,24.60
2019-05-20T10:54:51.468Z,25.10
2019-05-20T10:57:19.673Z,25.30
2019-05-20T10:59:47.888Z,25.70
2019-05-20T11:02:16.105Z,25.80
2019-05-20T11:04:44.339Z,26.00
2019-05-20T11:07:12.561Z,25.70
2019-05-20T11:09:40.756Z,26.00
2019-05-20T11:12:09.786Z,26.10
2019-05-20T11:14:37.996Z,26.60
2019-05-20T11:17:06.213Z,26.30
2019-05-20T11:19:34.435Z,26.00
2019-05-20T11:22:02.646Z,25.00
2019-05-20T11:24:30.858Z,23.90
2019-05-20T11:26:59.077Z,23.20
2019-05-20T11:29:27.279Z,23.10
2019-05-20T11:31:55.495Z,22.60
2019-05-20T11:34:23.710Z,21.90
2019-05-20T11:36:52.109Z,21.30
2019-05-20T11:39:32.569Z,20.80
2019-05-20T11:41:54.586Z,20.10
2019-05-20T11:46:48.254Z,19.00
2019-05-20T11:49:16.474Z,18.50
2019-05-20T11:51:44.680Z,18.10
2019-05-20T11:54:12.906Z,17.80
2019-05-20T11:56:41.112Z,17.60
2019-05-20T11:59:09.340Z,17.40
2019-05-20T12:01:37.544Z,17.20
2019-05-20T12:04:05.757Z,17.00
2019-05-20T12:06:33.980Z,16.70
2019-05-20T12:09:02.208Z,16.40
2019-05-20T12:16:26.484Z,15.80
2019-05-20T12:18:54.704Z,15.70
2019-05-20T12:21:22.912Z,15.70
2019-05-20T12:23:51.132Z,15.60
2019-05-20T12:26:22.460Z,15.50
2019-05-20T12:28:49.288Z,15.40
2019-05-20T12:31:17.492Z,15.40
2019-05-20T12:33:45.709Z,15.30
2019-05-20T12:36:13.921Z,15.20
2019-05-20T12:38:42.141Z,15.20
2019-05-20T12:41:10.361Z,15.10
2019-05-20T12:43:38.587Z,15.10
2019-05-20T12:46:06.801Z,15.10
2019-05-20T12:48:34.998Z,15.00
2019-05-20T12:51:03.230Z,15.00
2019-05-20T12:53:31.436Z,14.90
2019-05-20T12:55:59.651Z,15.00
2019-05-20T12:58:27.952Z,15.00
2019-05-20T13:00:56.154Z,15.10
2019-05-20T13:03:24.386Z,15.10
2019-05-20T13:05:52.604Z,15.10
2019-05-20T13:08:20.810Z,15.20
2019-05-20T13:10:49.058Z,15.40
2019-05-20T13:13:17.320Z,15.40
2019-05-20T13:15:45.535Z,15.50
2019-05-20T13:18:13.754Z,15.50
2019-05-20T13:20:41.997Z,15.40
2019-05-20T13:23:12.917Z,15.30
2019-05-20T13:25:40.194Z,15.20
2019-05-20T13:28:08.413Z,15.10
2019-05-20T13:30:36.627Z,15.00
2019-05-20T13:33:04.877Z,15.00
2019-05-20T13:35:33.120Z,14.90
2019-05-20T13:38:01.328Z,14.90
2019-05-20T13:40:44.937Z,14.90
2019-05-20T13:42:59.497Z,14.90
2019-05-20T13:45:27.768Z,14.90
2019-05-20T13:47:55.988Z,14.90
2019-05-20T13:50:24.196Z,14.90
2019-05-20T13:52:52.456Z,14.90
2019-05-20T13:55:20.731Z,14.80
2019-05-20T13:57:48.936Z,14.90
2019-05-20T14:00:17.234Z,14.90
2019-05-20T14:02:45.441Z,14.90
2019-05-20T14:05:13.676Z,14.90
2019-05-20T14:07:41.893Z,14.90
2019-05-20T14:10:10.121Z,14.90
2019-05-20T14:12:38.336Z,14.90
2019-05-20T14:15:06.620Z,14.90
2019-05-20T14:17:34.896Z,14.90
2019-05-20T14:20:03.359Z,14.90
2019-05-20T14:22:31.732Z,14.90
2019-05-20T14:25:00.109Z,14.90
2019-05-20T14:27:28.388Z,14.90
2019-05-20T14:29:56.615Z,14.90
2019-05-20T14:32:24.852Z,14.90
2019-05-20T14:34:53.052Z,14.90
2019-05-20T14:37:21.273Z,14.90
2019-05-20T14:39:49.627Z,14.90
2019-05-20T14:42:17.952Z,14.90
2019-05-20T14:44:46.191Z,15.00
2019-05-20T14:47:14.406Z,15.00
2019-05-20T14:49:42.626Z,15.10
2019-05-20T14:52:10.823Z,15.10
2019-05-20T14:54:39.045Z,15.10
2019-05-20T14:57:07.253Z,15.10
2019-05-20T14:59:35.479Z,15.20
2019-05-20T15:02:03.695Z,15.20
2019-05-20T15:04:31.923Z,15.20
2019-05-20T15:07:00.126Z,15.30
2019-05-20T15:09:28.348Z,15.30
2019-05-20T15:11:56.559Z,15.40
2019-05-20T15:14:24.801Z,15.40
2019-05-20T15:16:53.013Z,15.40
2019-05-20T15:19:21.225Z,15.40
2019-05-20T15:21:49.447Z,15.50
2019-05-20T15:24:17.651Z,15.50
2019-05-20T15:26:45.918Z,15.50
2019-05-20T15:29:27.490Z,15.50
2019-05-20T15:31:44.090Z,15.60
2019-05-20T15:34:12.421Z,15.60
2019-05-20T15:36:40.670Z,15.70
2019-05-20T15:39:08.952Z,15.70
2019-05-20T15:41:37.250Z,15.70
2019-05-20T15:44:05.463Z,15.70
2019-05-20T15:46:33.745Z,15.70
2019-05-20T15:49:02.257Z,15.70
2019-05-20T15:51:30.461Z,15.70
2019-05-20T15:53:58.963Z,15.70
2019-05-20T15:56:27.190Z,15.60
2019-05-20T15:58:55.400Z,15.70
2019-05-20T16:01:23.617Z,15.60
2019-05-20T16:03:51.858Z,15.60
2019-05-20T16:06:20.057Z,15.70
2019-05-20T16:08:48.269Z,15.70
2019-05-20T16:11:16.489Z,15.70
2019-05-20T16:13:44.693Z,15.80
2019-05-20T16:16:13.266Z,15.80
2019-05-20T16:18:41.699Z,15.90
2019-05-20T16:21:09.927Z,16.00
2019-05-20T16:23:38.157Z,16.10
2019-05-20T16:26:06.352Z,16.20
2019-05-20T16:28:34.631Z,16.20
2019-05-20T16:31:02.850Z,16.30
2019-05-20T16:33:31.052Z,16.30
2019-05-20T16:35:59.271Z,16.30
2019-05-20T16:38:27.507Z,16.30
2019-05-20T16:40:55.768Z,16.30
2019-05-20T16:43:23.992Z,16.30
2019-05-20T16:45:52.199Z,16.20
2019-05-20T16:48:20.417Z,16.40
2019-05-20T16:50:48.636Z,16.40
2019-05-20T16:53:16.846Z,16.40
2019-05-20T16:55:45.917Z,16.40
2019-05-20T16:58:14.200Z,16.30
2019-05-20T17:00:42.930Z,16.20
2019-05-20T17:03:11.178Z,16.10
2019-05-20T17:05:39.359Z,16.00
2019-05-20T17:08:07.591Z,15.90
2019-05-20T17:10:35.800Z,15.80
2019-05-20T17:13:04.013Z,15.80
2019-05-20T17:15:32.219Z,15.70
2019-05-20T17:18:00.435Z,15.60
2019-05-20T17:20:28.656Z,15.50
2019-05-20T17:22:56.873Z,15.50
2019-05-20T17:25:25.116Z,15.40
2019-05-20T17:27:53.381Z,15.30
2019-05-20T17:30:21.604Z,15.30
2019-05-20T17:32:49.818Z,15.20
2019-05-20T17:35:18.045Z,15.20
2019-05-20T17:37:46.255Z,15.20
2019-05-20T17:40:15.048Z,15.10
2019-05-20T17:42:43.261Z,15.00
2019-05-20T17:45:11.532Z,15.00
2019-05-20T17:47:39.744Z,15.00
2019-05-20T17:50:08.234Z,15.00
2019-05-20T17:52:36.444Z,15.00
2019-05-20T17:55:05.836Z,14.90
2019-05-20T17:57:34.092Z,14.90
2019-05-20T18:00:03.292Z,14.90
2019-05-20T18:02:31.526Z,14.80
2019-05-20T18:04:59.724Z,14.70
2019-05-20T18:07:27.953Z,14.70
2019-05-20T18:09:56.169Z,14.60
2019-05-20T18:12:24.396Z,14.50
2019-05-20T18:14:53.922Z,14.40
2019-05-20T18:17:22.151Z,14.30
2019-05-20T18:19:50.372Z,14.30
2019-05-20T18:22:18.619Z,14.20
2019-05-20T18:24:46.927Z,14.10
2019-05-20T18:27:15.182Z,14.10
2019-05-20T18:29:43.377Z,14.00
2019-05-20T18:32:11.616Z,13.90
2019-05-20T18:34:39.830Z,13.90
2019-05-20T18:37:08.084Z,13.90
2019-05-20T18:39:36.294Z,13.80
2019-05-20T18:42:04.514Z,13.80
2019-05-20T18:44:32.736Z,13.80
2019-05-20T18:47:00.940Z,13.80
2019-05-20T18:49:29.180Z,13.70
2019-05-20T18:51:57.398Z,13.70
2019-05-20T18:54:25.616Z,13.70
2019-05-20T18:56:53.828Z,13.70
2019-05-20T18:59:22.050Z,13.70
2019-05-20T19:02:03.810Z,13.60
2019-05-20T19:04:20.219Z,13.60
2019-05-20T19:06:48.428Z,13.60
2019-05-20T19:09:17.149Z,13.60
2019-05-20T19:11:45.367Z,13.60
2019-05-20T19:14:13.592Z,13.60
2019-05-20T19:16:41.822Z,13.60
2019-05-20T19:19:10.050Z,13.50
2019-05-20T19:21:38.288Z,13.50
2019-05-20T19:24:06.496Z,13.60
2019-05-20T19:26:34.720Z,13.60
2019-05-20T19:29:03.012Z,13.60
2019-05-20T19:31:31.248Z,13.60
2019-05-20T19:33:59.463Z,13.50
2019-05-20T19:36:27.668Z,13.60
2019-05-20T19:38:55.892Z,13.60
2019-05-20T19:41:24.123Z,13.60
2019-05-20T19:43:52.360Z,13.60
2019-05-20T19:46:20.625Z,13.50
2019-05-20T19:48:48.880Z,13.50
2019-05-20T19:51:17.103Z,13.60
2019-05-20T19:53:45.324Z,13.60
2019-05-20T19:56:13.535Z,13.50
2019-05-20T19:58:41.760Z,13.50
2019-05-20T20:01:09.984Z,13.50
2019-05-20T20:03:38.192Z,13.50
2019-05-20T20:06:06.403Z,13.50
2019-05-20T20:08:34.627Z,13.50
2019-05-20T20:11:02.857Z,13.50
2019-05-20T20:13:33.940Z,13.40
2019-05-20T20:16:01.024Z,13.50
2019-05-20T20:18:29.276Z,13.40
2019-05-20T20:20:57.494Z,13.40
2019-05-20T20:23:25.719Z,13.40
2019-05-20T20:25:53.936Z,13.40
2019-05-20T20:28:22.168Z,13.40
2019-05-20T20:30:50.385Z,13.40
2019-05-20T20:33:18.628Z,13.40
2019-05-20T20:35:46.862Z,13.40
2019-05-20T20:38:15.090Z,13.40
2019-05-20T20:40:43.308Z,13.40
2019-05-20T20:43:11.521Z,13.40
2019-05-20T20:45:39.764Z,13.40
2019-05-20T20:48:07.987Z,13.40
2019-05-20T20:50:36.241Z,13.40
2019-05-20T20:53:04.446Z,13.30
2019-05-20T20:55:32.948Z,13.30
2019-05-20T20:58:01.164Z,13.30
2019-05-20T21:00:29.409Z,13.30
2019-05-20T21:02:57.626Z,13.30
2019-05-20T21:05:25.848Z,13.30
2019-05-20T21:07:54.065Z,13.30
2019-05-20T21:10:22.287Z,13.30
2019-05-20T21:12:50.517Z,13.30
2019-05-20T21:15:18.736Z,13.30
2019-05-20T21:17:46.965Z,13.30
2019-05-20T21:20:15.192Z,13.20
2019-05-20T21:22:43.460Z,13.20
2019-05-20T21:25:11.683Z,13.20
2019-05-20T21:27:39.907Z,13.20
2019-05-20T21:30:09.124Z,13.20
2019-05-20T21:32:37.643Z,13.30
2019-05-20T21:35:06.128Z,13.30
2019-05-20T21:37:34.378Z,13.20
2019-05-20T21:40:02.669Z,13.30
2019-05-20T21:42:30.876Z,13.20
2019-05-20T21:44:59.101Z,13.30
2019-05-20T21:47:27.416Z,13.30
2019-05-20T21:49:55.635Z,13.30
2019-05-20T21:52:23.870Z,13.30
2019-05-20T21:54:52.080Z,13.30
2019-05-20T21:57:20.380Z,13.30
2019-05-20T21:59:48.600Z,13.30
2019-05-20T22:02:16.828Z,13.30
2019-05-20T22:04:45.063Z,13.30
2019-05-20T22:07:13.354Z,13.30
2019-05-20T22:09:41.588Z,13.30
2019-05-20T22:12:09.797Z,13.30
2019-05-20T22:14:38.040Z,13.30
2019-05-20T22:17:06.280Z,13.20
2019-05-20T22:19:34.511Z,13.20
2019-05-20T22:22:20.542Z,13.20
2019-05-20T22:24:48.772Z,13.20
2019-05-20T22:27:17.012Z,13.20
2019-05-20T22:29:45.269Z,13.10
2019-05-20T22:32:13.472Z,13.10
2019-05-20T22:34:52.649Z,13.10
2019-05-20T22:37:11.633Z,13.10
2019-05-20T22:39:39.854Z,13.10
2019-05-20T22:42:08.071Z,13.10
2019-05-20T22:44:36.292Z,13.10
2019-05-20T22:47:04.508Z,13.10
2019-05-20T22:49:32.726Z,13.00
2019-05-20T22:52:00.964Z,13.00
2019-05-20T22:54:29.187Z,13.00
2019-05-20T22:56:57.401Z,13.00
2019-05-20T22:59:25.636Z,13.00
2019-05-20T23:01:53.949Z,13.00
2019-05-20T23:04:22.159Z,13.00
2019-05-20T23:06:50.389Z,13.00
2019-05-20T23:09:18.617Z,13.00
2019-05-20T23:11:46.831Z,13.00
2019-05-20T23:14:15.065Z,13.00
2019-05-20T23:16:43.269Z,13.00
2019-05-20T23:19:11.489Z,13.00
2019-05-20T23:21:39.723Z,13.00
2019-05-20T23:24:07.967Z,12.90
2019-05-20T23:26:36.180Z,13.00
2019-05-20T23:29:04.425Z,13.00
2019-05-20T23:31:32.640Z,13.00
2019-05-20T23:34:12.311Z,13.00
2019-05-20T23:36:30.831Z,13.00
2019-05-20T23:38:59.040Z,12.90
2019-05-20T23:41:27.262Z,12.90
2019-05-20T23:43:55.486Z,12.90
2019-05-20T23:46:23.708Z,12.90
2019-05-20T23:48:51.933Z,12.90
2019-05-20T23:51:20.180Z,12.90
2019-05-20T23:53:48.392Z,12.90
2019-05-20T23:56:16.674Z,12.90
2019-05-20T23:58:44.911Z,12.90
